Latest Weather Observations for Coondewanna

IDW60801

Issued at 4:32 am WST Sunday 1 March 2015 (issued every 30 minutes, with the page automatically refreshed every 10 minutes)

About weather observations | Map of weather stations | Latest weather observations for WA | Other Formats
Station Details ID: 505051 Name: COONDEWANNA Lat: -22.96 Lon: 118.81 Height: 697.63 m
Data from the previous 72 hours. | See also: Recent months for locations in Western Australia
Date/Time
WST
Temp
°C
App
Temp
°C
Dew
Point
Rel
Hum
%
Delta-T
°C
Wind Press
QNH
hPa
Press
MSL
hPa
Rain
since 9 am
mm
Dir
 
Spd
km/h
Gust
km/h
Spd
kts
Gust
kts
01/04:30am 21.5 23.0 20.5 94 0.7 SW 13 15 7 8 1012.1 1006.0 11.8
01/04:00am 21.6 23.1 20.6 94 0.7 SW 13 15 7 8 1011.9 1005.9 10.0
01/03:30am 21.9 24.6 20.7 93 0.8 WSW 7 11 4 6 1011.7 1005.7 8.2
01/03:00am 21.7 22.6 20.0 90 1.1 WSW 15 20 8 11 1011.1 1005.0 6.6
01/02:30am 22.1 23.6 20.6 91 1.0 W 13 19 7 10 1011.4 1005.3 6.0
01/02:23am 22.0 22.6 20.3 90 1.1 W 17 24 9 13 1011.5 1005.4 5.8
01/02:00am 22.2 23.5 20.8 92 0.9 WNW 15 20 8 11 1011.8 1005.8 5.4
01/01:34am 22.1 24.2 20.9 93 0.8 NNW 11 20 6 11 1011.9 1005.9 4.4
01/01:32am 22.1 23.8 20.9 93 0.8 NNW 13 22 7 12 1011.9 1005.9 4.4
01/01:30am 22.1 23.8 20.9 93 0.8 NNW 13 22 7 12 1011.9 1005.9 4.2
01/01:00am 23.5 25.5 21.6 89 1.3 NNE 13 20 7 11 1011.6 1005.6 1.0
01/12:49am 24.2 26.5 21.3 84 2.0 N 11 19 6 10 1011.7 1005.7 0.4
01/12:30am 24.3 27.1 21.6 85 1.8 N 9 13 5 7 1011.5 1005.4 0.2
01/12:00am 25.1 24.6 19.9 73 3.5 N 22 35 12 19 1010.6 1004.5 0.0
 
Date/Time
WST
Temp
°C
App
Temp
°C
Dew
Point
Rel
Hum
%
Delta-T
°C
Wind Press
QNH
hPa
Press
MSL
hPa
Rain
since 9 am
mm
Dir
 
Spd
km/h
Gust
km/h
Spd
kts
Gust
kts
28/11:30pm 25.0 23.7 20.7 77 2.9 NE 28 39 15 21 1010.9 1004.8 0.0
28/11:00pm 26.1 24.4 19.7 68 4.3 ENE 28 39 15 21 1011.2 1005.1 0.0
28/10:30pm 27.8 27.6 19.3 60 5.6 NE 19 26 10 14 1010.8 1004.7 0.0
28/10:00pm 26.7 25.7 18.8 62 5.2 E 22 32 12 17 1010.9 1004.8 0.0
28/09:30pm 28.3 26.1 18.7 56 6.3 E 28 39 15 21 1011.0 1004.9 0.0
28/09:19pm 29.0 26.8 18.7 53 6.8 ENE 28 46 15 25 1011.0 1004.9 0.0
28/09:00pm 29.8 26.5 18.3 50 7.6 ESE 33 50 18 27 1010.4 1004.4 0.0
28/08:56pm 29.4 26.7 18.5 52 7.2 ESE 30 50 16 27 1010.3 1004.3 0.0
28/08:54pm 29.3 27.9 18.7 52 7.0 E 24 50 13 27 1010.4 1004.4 0.0
28/08:51pm 29.6 29.1 18.7 52 7.2 ENE 19 50 10 27 1010.3 1004.3 0.0
28/08:30pm 32.3 32.4 16.6 39 10.2 N 11 17 6 9 1009.9 1003.8 0.0
28/08:00pm 31.7 33.0 17.6 43 9.3 WNW 7 9 4 5 1009.6 1003.5 0.0
28/07:30pm 32.4 33.3 16.7 39 10.2 WNW 7 7 4 4 1009.1 1003.0 0.0
28/07:00pm 33.1 33.4 16.0 35 11.0 WNW 9 11 5 6 1008.7 1002.6 0.0
28/06:30pm 33.8 33.4 16.2 35 11.4 N 13 17 7 9 1008.4 1002.3 0.0
28/06:00pm 34.3 33.3 15.7 32 12.0 N 15 20 8 11 1007.9 1001.8 0.0
28/05:30pm 35.2 34.0 16.0 31 12.5 NNE 17 26 9 14 1007.7 1001.6 0.0
28/05:00pm 35.1 33.8 15.9 31 12.5 NNE 17 22 9 12 1007.8 1001.7 0.0
28/04:30pm 34.9 33.2 15.7 31 12.4 N 19 26 10 14 1008.0 1001.9 0.0
28/04:00pm 35.8 33.2 16.0 30 12.9 NNE 24 33 13 18 1007.9 1001.8 0.0
28/03:30pm 36.7 35.0 15.8 29 13.6 N 19 28 10 15 1008.2 1002.1 0.0
28/03:00pm 36.0 33.9 14.6 27 13.7 NE 19 30 10 16 1008.5 1002.4 0.0
28/02:30pm 36.3 34.4 14.3 27 14.0 ENE 17 32 9 17 1009.1 1003.0 0.0
28/02:00pm 36.1 32.9 13.0 25 14.4 NNE 22 32 12 17 1009.6 1003.5 0.0
28/01:30pm 35.6 33.9 14.8 28 13.3 E 17 26 9 14 1010.0 1003.9 0.0
28/01:00pm 35.1 34.4 16.4 32 12.2 NE 15 30 8 16 1010.4 1004.4 0.0
28/12:30pm 33.9 32.9 16.7 35 11.2 NNE 17 24 9 13 1011.1 1005.0 0.0
28/12:00pm 33.6 32.7 16.9 37 10.9 E 17 26 9 14 1011.5 1005.4 0.0
28/11:30am 33.8 33.0 17.1 37 11.0 NE 17 28 9 15 1011.9 1005.9 0.0
28/11:00am 33.4 34.5 18.0 40 10.2 NE 9 17 5 9 1012.2 1006.1 0.0
28/10:30am 31.8 33.2 17.7 43 9.3 ENE 7 13 4 7 1012.6 1006.5 0.0
28/10:00am 31.5 33.4 18.5 46 8.6 SW 6 9 3 5 1012.9 1006.8 0.0
28/09:30am 30.3 32.3 18.7 50 7.7 S 6 9 3 5 1013.0 1007.0 0.0
28/09:00am 28.9 31.1 19.5 57 6.3 SW 7 15 4 8 1013.0 1007.0 0.4
28/08:30am 28.0 30.3 19.5 60 5.7 WSW 6 9 3 5 1013.0 1007.0 0.4
28/08:00am 26.9 30.6 20.0 66 4.6 CALM 0 0 0 0 1013.1 1007.1 0.4
28/07:30am 26.1 29.9 20.2 70 4.0 CALM 0 0 0 0 1013.0 1007.0 0.4
28/07:00am 24.9 28.7 21.0 79 2.6 SSW 2 6 1 3 1012.7 1006.6 0.4
28/06:30am 23.3 26.7 21.6 90 1.2 SSW 6 7 3 4 1012.3 1006.2 0.4
28/06:00am 23.0 27.5 21.6 92 0.9 CALM 0 0 0 0 1011.8 1005.8 0.4
28/05:30am 22.8 26.0 21.6 93 0.8 SSW 7 9 4 5 1011.6 1005.6 0.4
28/05:00am 22.9 26.6 21.5 92 0.9 SSW 4 9 2 5 1011.2 1005.1 0.4
28/04:30am 23.5 27.7 21.8 90 1.2 SSW 2 7 1 4 1010.9 1004.8 0.4
28/04:00am 23.4 27.8 21.3 88 1.4 CALM 0 0 0 0 1010.9 1004.8 0.4
28/03:30am 23.8 26.9 21.1 85 1.8 SSW 6 7 3 4 1010.8 1004.7 0.4
28/03:00am 23.9 27.4 21.8 88 1.4 SSW 6 7 3 4 1010.8 1004.7 0.4
28/02:30am 24.2 27.7 21.9 87 1.6 SSW 6 7 3 4 1010.7 1004.6 0.4
28/02:00am 23.7 27.5 21.6 88 1.4 SSW 4 7 2 4 1010.4 1004.4 0.4
28/01:30am 24.1 27.6 21.8 87 1.6 SSW 6 6 3 3 1010.6 1004.5 0.4
28/01:00am 24.4 27.9 22.1 87 1.6 SSW 7 9 4 5 1010.7 1004.6 0.4
28/12:30am 24.6 28.3 22.3 87 1.6 SSW 6 7 3 4 1011.0 1004.9 0.4
28/12:00am 24.5 29.6 22.7 90 1.2 CALM 0 0 0 0 1011.2 1005.1 0.4
 
Date/Time
WST
Temp
°C
App
Temp
°C
Dew
Point
Rel
Hum
%
Delta-T
°C
Wind Press
QNH
hPa
Press
MSL
hPa
Rain
since 9 am
mm
Dir
 
Spd
km/h
Gust
km/h
Spd
kts
Gust
kts
27/11:30pm 24.8 29.1 22.7 88 1.5 SSW 4 7 2 4 1011.3 1005.2 0.4
27/11:00pm 25.2 29.2 23.1 88 1.5 SSW 7 9 4 5 1011.3 1005.2 0.4
27/10:30pm 25.2 29.3 22.9 87 1.6 SSW 6 6 3 3 1011.7 1005.7 0.4
27/10:00pm 25.2 29.3 22.9 87 1.6 SSW 6 6 3 3 1011.6 1005.6 0.4
27/09:30pm 25.7 30.2 22.2 81 2.4 SSW 2 6 1 3 1011.7 1005.7 0.4
27/09:26pm 25.9 30.0 22.2 80 2.5 SSW 4 6 2 3 1011.7 1005.7 0.4
27/09:04pm 26.0 29.9 22.5 81 2.4 SSW 6 7 3 4 1011.7 1005.7 0.4
27/09:00pm 25.9 29.4 22.2 80 2.5 SSW 7 7 4 4 1011.6 1005.6 0.4
27/08:30pm 25.9 30.8 22.4 81 2.4 CALM 0 0 0 0 1011.2 1005.1 0.4
27/08:00pm 25.9 31.0 22.6 82 2.3 CALM 0 0 0 0 1010.8 1004.7 0.4
27/07:59pm 25.9 31.0 22.6 82 2.3 CALM 0 0 0 0 1010.8 1004.7 0.4
27/07:40pm 26.1 31.2 22.6 81 2.4 CALM 0 0 0 0 1010.4 1004.4 0.4
27/07:30pm 26.1 31.0 22.4 80 2.6 CALM 0 0 0 0 1010.2 1004.1 0.4
27/07:00pm 27.1 30.6 22.1 74 3.4 SSW 7 9 4 5 1009.7 1003.6 0.4
27/06:30pm 27.5 30.2 21.3 69 4.2 SW 9 11 5 6 1009.3 1003.2 0.4
27/06:00pm 28.1 31.2 21.4 67 4.6 N 7 9 4 5 1009.1 1003.0 0.4
27/05:30pm 28.5 31.6 21.5 66 4.8 N 7 11 4 6 1008.7 1002.6 0.4
27/05:00pm 28.3 31.8 22.1 69 4.3 N 7 9 4 5 1008.7 1002.6 0.4
27/04:30pm 28.6 30.4 21.1 64 5.1 ENE 13 17 7 9 1008.6 1002.5 0.2
27/04:00pm 30.3 29.9 19.0 50 7.5 NE 19 26 10 14 1008.6 1002.5 0.0
27/03:30pm 29.7 27.7 19.1 53 7.1 NE 28 39 15 21 1008.8 1002.7 0.0
27/03:27pm 30.0 28.4 19.1 52 7.3 NE 26 39 14 21 1008.8 1002.7 0.0
27/03:00pm 31.9 33.8 19.8 48 8.2 ESE 9 17 5 9 1008.9 1002.8 0.0
27/02:30pm 31.5 33.1 19.2 48 8.2 SW 9 13 5 7 1009.5 1003.4 0.0
27/02:00pm 31.4 33.4 19.1 48 8.2 W 7 19 4 10 1009.8 1003.7 0.0
27/01:30pm 30.3 32.5 19.6 52 7.2 NW 7 13 4 7 1010.2 1004.1 0.0
27/01:00pm 29.3 31.4 20.2 58 6.2 NW 9 13 5 7 1010.7 1004.6 0.0
27/12:30pm 28.3 30.7 20.1 61 5.5 W 7 11 4 6 1010.9 1004.8 0.0
27/12:00pm 27.7 30.5 20.5 65 4.9 NW 6 9 3 5 1011.3 1005.2 0.0
27/11:30am 26.9 30.5 21.2 71 3.9 NW 4 7 2 4 1011.6 1005.6 0.0
27/11:00am 26.4 29.6 21.6 75 3.3 NW 7 9 4 5 1011.9 1005.9 0.0
27/10:30am 25.6 28.6 21.3 77 2.9 NW 7 11 4 6 1011.9 1005.9 0.0
27/10:00am 25.2 27.7 21.1 78 2.8 NNW 9 15 5 8 1012.3 1006.2 0.0
27/09:30am 24.8 27.4 21.9 84 2.0 NW 11 15 6 8 1012.3 1006.2 0.0
27/09:00am 24.4 27.5 21.5 84 2.0 NW 7 13 4 7 1012.6 1006.5 9.6
27/08:30am 24.2 27.0 21.5 85 1.8 N 9 15 5 8 1012.7 1006.6 9.6
27/08:00am 23.6 26.6 21.3 87 1.6 NNE 7 9 4 5 1012.9 1006.8 9.6
27/07:30am 23.2 25.8 20.5 85 1.8 NNE 7 13 4 7 1013.0 1007.0 9.6
27/07:00am 22.3 24.4 20.9 92 0.9 NNW 11 15 6 8 1013.1 1007.1 9.6
27/06:30am 22.3 25.0 20.6 90 1.1 WNW 7 11 4 6 1012.3 1006.2 9.6
27/06:00am 22.5 26.1 20.6 89 1.3 N 2 6 1 3 1012.1 1006.0 9.2
27/05:30am 22.2 24.9 20.7 91 1.0 N 7 11 4 6 1011.9 1005.9 8.6
27/05:00am 22.1 23.6 20.6 91 1.0 NNW 13 20 7 11 1011.6 1005.6 8.4
27/04:30am 22.8 24.7 21.3 91 1.0 NNW 13 19 7 10 1011.5 1005.4 8.2
27/04:00am 23.1 24.7 20.8 87 1.5 ENE 13 17 7 9 1010.7 1004.6 7.8
27/03:30am 23.2 24.4 21.5 90 1.2 NE 17 28 9 15 1011.0 1004.9 7.4
27/03:00am 23.8 27.6 22.8 94 0.7 NE 7 11 4 6 1011.3 1005.2 6.8
27/02:30am 23.7 26.9 22.3 92 1.0 N 9 13 5 7 1010.9 1004.8 5.8
27/02:00am 24.1 29.0 22.4 90 1.2 CALM 0 0 0 0 1010.7 1004.6 4.6
27/01:30am 23.7 26.8 22.1 91 1.1 NNE 9 11 5 6 1010.8 1004.7 4.4
27/01:00am 25.1 27.3 21.2 79 2.6 NE 11 13 6 7 1011.4 1005.3 3.6
27/12:30am 24.5 26.9 21.6 84 2.0 ENE 11 17 6 9 1011.6 1005.6 3.6
27/12:00am 24.1 26.6 21.8 87 1.6 NE 11 17 6 9 1011.2 1005.1 3.6
 
Date/Time
WST
Temp
°C
App
Temp
°C
Dew
Point
Rel
Hum
%
Delta-T
°C
Wind Press
QNH
hPa
Press
MSL
hPa
Rain
since 9 am
mm
Dir
 
Spd
km/h
Gust
km/h
Spd
kts
Gust
kts
26/11:30pm 24.0 27.0 21.9 88 1.4 NNE 9 15 5 8 1011.4 1005.3 3.4
26/11:00pm 23.5 24.1 21.4 88 1.4 N 20 30 11 16 1011.6 1005.6 2.8
26/10:30pm 24.1 24.7 21.4 85 1.8 NE 20 28 11 15 1011.7 1005.7 1.8
26/10:00pm 28.5 27.0 19.4 57 6.1 E 26 33 14 18 1011.4 1005.3 0.8
26/09:53pm 28.8 27.9 19.1 55 6.4 E 22 33 12 18 1011.4 1005.3 0.8
26/09:30pm 29.3 30.4 18.1 51 7.3 SSE 9 11 5 6 1011.3 1005.2 0.8
26/09:00pm 29.3 29.7 18.1 51 7.4 SSW 13 20 7 11 1010.6 1004.5 0.8
26/08:30pm 31.2 29.2 17.5 44 9.0 SW 24 33 13 18 1009.8 1003.7 0.8
26/08:00pm 32.9 33.0 15.4 35 11.2 NNW 9 11 5 6 1009.1 1003.0 0.8
26/07:30pm 33.6 32.6 15.6 34 11.6 N 15 20 8 11 1008.8 1002.7 0.8
26/07:00pm 33.9 32.8 15.4 33 11.9 N 15 22 8 12 1008.6 1002.5 0.8
26/06:30pm 34.3 32.4 15.2 31 12.2 N 19 28 10 15 1008.2 1002.1 0.8
26/06:00pm 34.9 32.8 14.7 29 12.9 NNW 19 33 10 18 1008.0 1001.9 0.8
26/05:30pm 35.8 33.2 15.0 29 13.3 N 22 30 12 16 1007.4 1001.3 0.8
26/05:00pm 35.5 33.1 15.3 30 13.0 N 22 32 12 17 1007.4 1001.3 0.8
26/04:30pm 36.0 34.1 15.7 30 13.1 N 20 28 11 15 1007.6 1001.4 0.8
26/04:00pm 35.8 33.2 13.9 27 13.9 N 20 32 11 17 1007.6 1001.4 0.8
26/03:30pm 36.9 34.5 15.4 28 13.9 NNE 22 35 12 19 1007.8 1001.7 0.8
26/03:00pm 36.8 34.5 15.8 28 13.7 NNE 22 33 12 18 1008.1 1002.0 0.8
26/02:30pm 36.4 34.8 16.0 29 13.3 N 19 30 10 16 1008.4 1002.3 0.8
26/02:00pm 36.6 34.7 15.7 29 13.6 NNE 20 33 11 18 1008.8 1002.7 0.8
26/01:30pm 36.2 34.2 16.4 31 13.0 N 22 35 12 19 1009.4 1003.3 0.0
26/01:00pm 34.8 34.4 17.1 35 11.7 N 15 26 8 14 1010.0 1003.9 0.0
26/12:30pm 35.9 34.7 17.1 32 12.4 N 19 32 10 17 1010.4 1004.4 0.0
26/12:00pm 35.2 33.6 17.4 34 11.8 NNE 22 33 12 18 1010.8 1004.7 0.0
26/11:30am 34.5 33.4 17.7 37 11.1 N 20 30 11 16 1011.4 1005.3 0.0
26/11:00am 32.9 31.9 17.5 39 10.1 NNE 19 30 10 16 1011.7 1005.7 0.0
26/10:30am 32.6 32.5 18.8 44 9.2 N 17 26 9 14 1012.2 1006.1 0.0
26/10:00am 31.9 32.1 18.5 45 8.9 N 15 24 8 13 1012.5 1006.4 0.0
26/09:30am 31.7 32.9 18.3 45 8.9 ENE 9 15 5 8 1012.8 1006.7 0.0
26/09:00am 30.5 32.2 18.6 49 7.9 SE 7 13 4 7 1012.9 1006.8 0.0
26/08:30am 28.9 30.7 18.7 54 6.7 W 7 9 4 5 1012.9 1006.8 0.0
26/08:00am 28.1 29.9 18.8 57 6.1 WSW 7 13 4 7 1012.8 1006.7 0.0
26/07:30am 27.8 30.7 19.1 59 5.8 WNW 2 6 1 3 1012.7 1006.6 0.0
26/07:00am 26.0 28.7 19.4 67 4.4 WNW 4 7 2 4 1012.3 1006.2 0.0
26/06:30am 25.0 28.9 20.3 75 3.1 CALM 0 0 0 0 1012.1 1006.0 0.0
26/06:00am 24.6 28.2 20.5 78 2.7 WNW 2 6 1 3 1011.8 1005.8 0.0
26/05:30am 24.9 28.2 19.0 69 3.9 CALM 0 0 0 0 1011.4 1005.3 0.0
26/05:00am 24.5 27.8 19.1 72 3.5 CALM 0 0 0 0 1011.0 1004.9 0.0

Other Formats:

Comma delimited format used in spreadsheet applications
http://www.bom.gov.au/fwo/IDW60801/IDW60801.99312.axf

JavaScript Object Notation format (JSON) in row-major order
http://www.bom.gov.au/fwo/IDW60801/IDW60801.99312.json